KTXK/TXK METAR and TAF weather

Enter ICAO airport designator
Station Type Date Time Source
KTXK METAR 2024/04/17 17:53 UTC NOAA

KTXK 171753Z VRB04KT 10SM CLR 30/19 A2999 RMK AO2 SLP148 T03000194 10300 20211 58004


Station Type Date Time Source
KTXK Decoded METAR 2024/04/17 17:53 UTC NOAA

TEXARKANA RGNL WEBB FIELD, AR, United States (KTXK) 33-27N 093-59W 111M
Apr 17, 2024 - 01:53 PM EDT / 2024.04.17 1753 UTC
Wind: Variable at 5 MPH (4 KT):0
Visibility: 10 mile(s):0
Sky conditions: clear
Temperature: 86.0 F (30.0 C)
Dew Point: 66.9 F (19.4 C)
Relative Humidity: 53%
Pressure (altimeter): 29.99 in. Hg (1015 hPa)
Pressure tendency: 0.01 inches (0.4 hPa) lower than three hours ago
ob: KTXK 171753Z VRB04KT 10SM CLR 30/19 A2999 RMK AO2 SLP148 T03000194 10300 20211 58004
cycle: 18

Station Type Date Time Source
KTXK TAF 2024/04/17 18:22 UTC NOAA